createdAt,value
2023-02-23T00:02:58.847Z,45.70
2023-02-23T00:06:04.487Z,37.05
2023-02-23T00:09:23.234Z,38.88
2023-02-23T00:12:26.952Z,32.47
2023-02-23T00:15:30.173Z,35.75
2023-02-23T00:18:44.947Z,32.28
2023-02-23T00:21:48.221Z,31.58
2023-02-23T00:24:52.883Z,31.95
2023-02-23T00:27:56.075Z,30.45
2023-02-23T00:31:00.024Z,28.23
2023-02-23T00:34:04.551Z,27.05
2023-02-23T00:37:08.645Z,26.85
2023-02-23T00:40:16.556Z,25.10
2023-02-23T00:43:23.554Z,26.65
2023-02-23T00:46:28.416Z,24.08
2023-02-23T00:49:31.664Z,26.17
2023-02-23T00:52:34.816Z,23.98
2023-02-23T00:55:43.649Z,26.17
2023-02-23T00:58:46.884Z,25.98
2023-02-23T01:01:50.053Z,21.33
2023-02-23T01:04:56.995Z,23.10
2023-02-23T01:08:01.451Z,17.50
2023-02-23T01:11:09.845Z,17.75
2023-02-23T01:14:13.085Z,17.80
2023-02-23T01:17:17.913Z,16.73
2023-02-23T01:20:21.263Z,20.92
2023-02-23T01:23:24.430Z,16.48
2023-02-23T01:26:31.589Z,18.73
2023-02-23T01:29:34.966Z,16.50
2023-02-23T01:32:39.230Z,15.35
2023-02-23T01:35:43.614Z,17.48
2023-02-23T01:38:46.815Z,19.67
2023-02-23T01:41:54.166Z,18.55
2023-02-23T01:45:24.686Z,23.55
2023-02-23T01:48:31.813Z,19.85
2023-02-23T01:51:41.116Z,16.02
2023-02-23T01:54:50.360Z,19.25
2023-02-23T01:58:02.419Z,18.17
2023-02-23T02:01:06.984Z,18.23
2023-02-23T02:04:16.366Z,17.23
2023-02-23T02:07:22.732Z,19.27
2023-02-23T02:10:46.858Z,15.27
2023-02-23T02:13:54.051Z,14.93
2023-02-23T02:17:23.483Z,19.55
2023-02-23T02:20:53.208Z,14.87
2023-02-23T02:24:38.766Z,15.07
2023-02-23T02:28:08.828Z,15.00
2023-02-23T02:31:44.841Z,14.05
2023-02-23T02:35:33.645Z,13.98
2023-02-23T02:38:53.587Z,13.98
2023-02-23T02:42:06.827Z,14.40
2023-02-23T02:45:17.966Z,15.98
2023-02-23T02:51:36.673Z,16.85
2023-02-23T02:54:47.748Z,12.73
2023-02-23T02:57:53.124Z,16.02
2023-02-23T03:01:38.754Z,15.23
2023-02-23T03:05:00.532Z,13.52
2023-02-23T03:08:34.311Z,15.27
2023-02-23T03:11:59.266Z,15.30
2023-02-23T03:15:30.675Z,15.60
2023-02-23T03:19:08.828Z,17.88
2023-02-23T03:22:40.219Z,16.75
2023-02-23T03:26:07.788Z,17.08
2023-02-23T03:29:35.696Z,18.63
2023-02-23T03:33:11.653Z,17.98
2023-02-23T03:36:42.838Z,18.38
2023-02-23T03:40:15.014Z,18.13
2023-02-23T03:43:41.638Z,15.07
2023-02-23T03:47:07.380Z,15.43
2023-02-23T03:50:34.321Z,17.77
2023-02-23T03:54:02.136Z,15.70
2023-02-23T03:57:27.008Z,18.55
2023-02-23T04:00:51.086Z,18.75
2023-02-23T04:04:16.513Z,18.92
2023-02-23T04:07:38.970Z,16.52
2023-02-23T04:11:07.458Z,19.38
2023-02-23T04:14:19.127Z,19.00
2023-02-23T04:17:30.368Z,17.67
2023-02-23T04:20:35.283Z,82.90
2023-02-23T04:23:40.726Z,19.85
2023-02-23T04:26:44.054Z,17.83
2023-02-23T04:29:47.238Z,18.23
2023-02-23T04:32:50.418Z,20.20
2023-02-23T04:35:55.461Z,17.67
2023-02-23T04:38:58.759Z,17.35
2023-02-23T04:42:02.236Z,17.58
2023-02-23T04:45:05.831Z,19.00
2023-02-23T04:48:09.578Z,17.70
2023-02-23T04:51:14.085Z,17.55
2023-02-23T04:54:17.468Z,17.20
2023-02-23T04:57:20.670Z,18.25
2023-02-23T05:00:24.007Z,19.13
2023-02-23T05:03:27.174Z,18.25
2023-02-23T05:06:32.073Z,18.90
2023-02-23T05:09:36.101Z,22.17
2023-02-23T05:12:39.413Z,18.45
2023-02-23T05:15:42.907Z,22.80
2023-02-23T05:18:46.134Z,20.67
2023-02-23T05:21:50.776Z,21.52
2023-02-23T05:24:56.387Z,22.05
2023-02-23T05:28:00.924Z,22.42
2023-02-23T05:31:04.744Z,22.45
2023-02-23T05:34:08.222Z,17.23
2023-02-23T05:37:12.829Z,22.10
2023-02-23T05:40:16.489Z,27.10
2023-02-23T05:43:19.826Z,20.45
2023-02-23T05:46:24.968Z,18.40
2023-02-23T05:49:28.278Z,19.13
2023-02-23T05:52:33.014Z,15.75
2023-02-23T05:55:37.527Z,14.18
2023-02-23T05:58:41.062Z,14.18
2023-02-23T06:01:44.484Z,14.30
2023-02-23T06:04:47.927Z,13.23
2023-02-23T06:07:53.853Z,14.23
2023-02-23T06:10:57.224Z,17.45
2023-02-23T06:14:00.655Z,13.23
2023-02-23T06:17:04.136Z,14.35
2023-02-23T06:20:08.180Z,11.85
2023-02-23T06:23:12.931Z,14.07
2023-02-23T06:26:16.113Z,14.65
2023-02-23T06:29:19.565Z,9.57
2023-02-23T06:32:22.856Z,13.60
2023-02-23T06:35:27.953Z,12.18
2023-02-23T06:38:33.026Z,11.40
2023-02-23T06:41:36.228Z,17.52
2023-02-23T06:44:40.174Z,14.90
2023-02-23T06:47:43.535Z,11.40
2023-02-23T06:50:46.671Z,15.57
2023-02-23T06:53:52.478Z,14.35
2023-02-23T06:56:56.670Z,11.93
2023-02-23T07:00:01.652Z,12.98
2023-02-23T07:03:05.034Z,11.32
2023-02-23T07:06:08.192Z,10.95
2023-02-23T07:09:12.875Z,11.63
2023-02-23T07:12:16.089Z,14.50
2023-02-23T07:15:20.285Z,12.07
2023-02-23T07:18:23.484Z,12.88
2023-02-23T07:21:26.681Z,19.98
2023-02-23T07:24:31.251Z,13.05
2023-02-23T07:27:34.626Z,11.15
2023-02-23T07:30:37.800Z,10.90
2023-02-23T07:33:41.126Z,12.35
2023-02-23T07:36:44.390Z,18.02
2023-02-23T07:39:49.088Z,15.95
2023-02-23T07:42:52.228Z,15.68
2023-02-23T07:46:00.059Z,18.35
2023-02-23T07:49:04.464Z,13.18
2023-02-23T07:52:07.976Z,15.05
2023-02-23T07:55:13.586Z,17.80
2023-02-23T07:58:16.793Z,14.27
2023-02-23T08:01:20.210Z,15.85
2023-02-23T08:04:23.655Z,15.85
2023-02-23T08:07:27.101Z,17.52
2023-02-23T08:10:31.871Z,11.35
2023-02-23T08:13:36.121Z,10.77
2023-02-23T08:16:39.374Z,10.88
2023-02-23T08:19:42.591Z,13.15
2023-02-23T08:22:49.733Z,15.82
2023-02-23T08:25:55.231Z,16.90
2023-02-23T08:28:58.403Z,12.52
2023-02-23T08:32:03.779Z,11.52
2023-02-23T08:35:08.026Z,14.50
2023-02-23T08:38:11.214Z,11.73
2023-02-23T08:41:16.126Z,13.70
2023-02-23T08:44:19.337Z,10.02
2023-02-23T08:47:23.557Z,14.18
2023-02-23T08:50:27.548Z,13.60
2023-02-23T08:53:30.993Z,14.57
2023-02-23T08:56:35.560Z,23.50
2023-02-23T08:59:41.081Z,15.88
2023-02-23T09:02:45.362Z,11.25
2023-02-23T09:05:48.682Z,13.48
2023-02-23T09:08:52.207Z,11.02
2023-02-23T09:11:59.010Z,9.02
2023-02-23T09:15:02.381Z,8.93
2023-02-23T09:18:06.051Z,9.63
2023-02-23T09:21:18.741Z,12.05
2023-02-23T09:24:22.757Z,11.68
2023-02-23T09:27:27.750Z,9.15
2023-02-23T09:30:30.972Z,12.18
2023-02-23T09:33:34.330Z,15.18
2023-02-23T09:36:37.852Z,12.15
2023-02-23T09:39:41.057Z,11.75
2023-02-23T09:42:55.013Z,10.18
2023-02-23T09:46:04.387Z,13.43
2023-02-23T09:49:15.083Z,12.40
2023-02-23T09:52:22.266Z,11.82
2023-02-23T09:55:26.785Z,10.10
2023-02-23T09:58:34.473Z,13.18
2023-02-23T10:01:59.731Z,10.40
2023-02-23T10:05:06.541Z,9.77
2023-02-23T10:08:20.266Z,10.05
2023-02-23T10:11:30.599Z,14.00
2023-02-23T10:14:57.372Z,14.63
2023-02-23T10:18:07.285Z,12.68
2023-02-23T10:21:17.276Z,12.73
2023-02-23T10:24:26.068Z,20.77
2023-02-23T10:27:38.328Z,13.00
2023-02-23T10:30:43.269Z,12.73
2023-02-23T10:33:46.742Z,17.17
2023-02-23T10:36:53.723Z,19.58
2023-02-23T10:39:56.976Z,19.13
2023-02-23T10:43:02.643Z,16.95
2023-02-23T10:46:08.885Z,11.15
2023-02-23T10:49:19.188Z,12.55
2023-02-23T10:52:28.541Z,13.73
2023-02-23T10:55:33.530Z,26.52
2023-02-23T10:58:43.691Z,33.45
2023-02-23T11:02:01.382Z,15.10
2023-02-23T11:05:07.193Z,23.40
2023-02-23T11:08:27.231Z,20.90
2023-02-23T11:11:30.730Z,18.70
2023-02-23T11:14:35.255Z,16.48
2023-02-23T11:17:40.043Z,38.40
2023-02-23T11:20:44.329Z,55.65
2023-02-23T11:23:50.643Z,24.88
2023-02-23T11:26:57.980Z,24.73
2023-02-23T11:30:07.243Z,26.55
2023-02-23T11:33:19.897Z,57.17
2023-02-23T11:36:30.293Z,25.98
2023-02-23T11:42:36.893Z,14.65
2023-02-23T11:45:47.879Z,16.98
2023-02-23T11:48:56.068Z,12.70
2023-02-23T11:51:59.487Z,34.45
2023-02-23T11:55:07.108Z,25.90
2023-02-23T11:58:24.253Z,31.95
2023-02-23T12:01:44.587Z,27.20
2023-02-23T12:04:50.681Z,17.73
2023-02-23T12:08:01.184Z,19.50
2023-02-23T12:14:17.399Z,17.17
2023-02-23T12:17:26.571Z,17.02
2023-02-23T12:20:38.688Z,21.02
2023-02-23T12:23:44.352Z,14.68
2023-02-23T12:26:51.711Z,19.10
2023-02-23T12:30:09.244Z,15.50
2023-02-23T12:33:17.009Z,14.25
2023-02-23T12:36:29.951Z,17.65
2023-02-23T12:39:36.933Z,20.23
2023-02-23T12:42:46.990Z,15.27
2023-02-23T12:45:55.093Z,17.38
2023-02-23T12:49:05.288Z,15.23
2023-02-23T12:52:14.716Z,16.02
2023-02-23T12:55:30.447Z,16.75
2023-02-23T12:58:42.062Z,16.98
2023-02-23T13:01:49.574Z,17.05
2023-02-23T13:05:13.133Z,17.30
2023-02-23T13:08:27.912Z,15.15
2023-02-23T13:11:55.715Z,16.30
2023-02-23T13:15:10.435Z,14.20
2023-02-23T13:18:20.285Z,17.10
2023-02-23T13:21:30.389Z,65.30
2023-02-23T13:24:39.340Z,19.30
2023-02-23T13:27:54.156Z,18.13
2023-02-23T13:30:57.874Z,15.68
2023-02-23T13:34:03.358Z,16.23
2023-02-23T13:37:09.384Z,15.05
2023-02-23T13:40:30.518Z,16.98
2023-02-23T13:43:38.802Z,14.75
2023-02-23T13:46:51.674Z,15.27
2023-02-23T13:50:01.328Z,16.65
2023-02-23T13:53:08.678Z,20.98
2023-02-23T13:56:19.040Z,18.20
2023-02-23T14:02:38.733Z,21.30
2023-02-23T14:05:44.885Z,15.10
2023-02-23T14:08:54.350Z,16.00
2023-02-23T14:12:19.124Z,18.17
2023-02-23T14:15:45.251Z,17.52
2023-02-23T14:18:57.925Z,18.85
2023-02-23T14:22:04.276Z,21.27
2023-02-23T14:25:45.209Z,17.52
2023-02-23T14:29:10.999Z,21.33
2023-02-23T14:32:32.423Z,24.90
2023-02-23T14:35:44.564Z,18.40
2023-02-23T14:38:48.505Z,18.75
2023-02-23T14:41:54.654Z,20.30
2023-02-23T14:45:05.906Z,17.88
2023-02-23T14:48:15.830Z,18.17
2023-02-23T14:51:24.605Z,16.55
2023-02-23T14:54:32.511Z,19.23
2023-02-23T14:57:38.348Z,19.92
2023-02-23T15:00:44.960Z,23.15
2023-02-23T15:04:08.309Z,23.23
2023-02-23T15:07:18.550Z,38.30
2023-02-23T15:10:26.917Z,28.15
2023-02-23T15:16:40.629Z,88.55
2023-02-23T15:19:46.169Z,23.00
2023-02-23T15:22:53.742Z,24.88
2023-02-23T15:25:57.075Z,43.75
2023-02-23T15:29:07.032Z,41.63
2023-02-23T15:32:20.732Z,54.15
2023-02-23T15:35:24.158Z,106.70
2023-02-23T15:38:45.732Z,56.75
2023-02-23T15:41:50.662Z,44.25
2023-02-23T15:45:00.377Z,34.33
2023-02-23T15:48:08.998Z,24.50
2023-02-23T15:51:26.057Z,70.18
2023-02-23T15:54:33.499Z,88.70
2023-02-23T15:57:48.216Z,49.20
2023-02-23T16:00:56.142Z,42.13
2023-02-23T16:04:07.002Z,37.58
2023-02-23T16:07:17.129Z,41.22
2023-02-23T16:10:25.100Z,71.50
2023-02-23T16:13:29.012Z,58.38
2023-02-23T16:16:35.947Z,57.50
2023-02-23T16:19:41.955Z,60.42
2023-02-23T16:22:47.076Z,54.20
2023-02-23T16:25:55.694Z,48.72
2023-02-23T16:29:02.149Z,52.80
2023-02-23T16:32:17.445Z,48.97
2023-02-23T16:35:22.370Z,49.58
2023-02-23T16:38:27.618Z,50.55
2023-02-23T16:41:32.453Z,53.53
2023-02-23T16:44:43.337Z,65.78
2023-02-23T16:47:48.899Z,61.17
2023-02-23T16:50:54.624Z,51.00
2023-02-23T16:53:57.952Z,74.80
2023-02-23T16:57:01.274Z,51.20
2023-02-23T17:00:14.504Z,56.63
2023-02-23T17:03:22.253Z,56.80
2023-02-23T17:06:27.089Z,55.58
2023-02-23T17:09:30.860Z,58.13
2023-02-23T17:12:34.318Z,60.60
2023-02-23T17:15:48.036Z,55.63
2023-02-23T17:18:51.426Z,61.17
2023-02-23T17:21:56.196Z,66.65
2023-02-23T17:24:59.633Z,76.82
2023-02-23T17:28:04.031Z,75.68
2023-02-23T17:31:08.314Z,73.15
2023-02-23T17:34:11.986Z,130.15
2023-02-23T17:37:16.590Z,85.75
2023-02-23T17:40:28.750Z,753.65
2023-02-23T17:43:32.237Z,499.05
2023-02-23T17:46:36.145Z,934.35
2023-02-23T17:49:39.898Z,725.05
2023-02-23T17:52:44.612Z,480.23
2023-02-23T17:55:48.474Z,354.98
2023-02-23T17:58:52.069Z,478.30
2023-02-23T18:01:55.908Z,324.95
2023-02-23T18:04:59.773Z,624.40
2023-02-23T18:08:04.573Z,324.15
2023-02-23T18:11:08.331Z,223.20
2023-02-23T18:14:14.167Z,155.73
2023-02-23T18:17:18.240Z,294.10
2023-02-23T18:20:21.851Z,303.52
2023-02-23T18:23:28.979Z,109.65
2023-02-23T18:26:32.399Z,399.92
2023-02-23T18:29:37.168Z,68.88
2023-02-23T18:32:40.491Z,52.78
2023-02-23T18:35:45.650Z,95.95
2023-02-23T18:38:51.223Z,162.05
2023-02-23T18:41:54.494Z,362.58
2023-02-23T18:44:57.879Z,92.82
2023-02-23T18:48:01.514Z,129.77
2023-02-23T18:51:07.022Z,129.98
2023-02-23T18:54:18.790Z,260.08
2023-02-23T18:57:26.761Z,313.77
2023-02-23T19:03:46.132Z,77.30
2023-02-23T19:06:49.378Z,69.57
2023-02-23T19:09:54.225Z,59.00
2023-02-23T19:12:57.890Z,56.38
2023-02-23T19:16:04.773Z,66.20
2023-02-23T19:19:09.132Z,67.22
2023-02-23T19:22:12.657Z,61.53
2023-02-23T19:25:17.431Z,55.10
2023-02-23T19:28:22.241Z,47.13
2023-02-23T19:31:27.381Z,43.78
2023-02-23T19:34:31.637Z,46.28
2023-02-23T19:37:36.399Z,84.20
2023-02-23T19:40:42.703Z,66.97
2023-02-23T19:43:46.962Z,105.80
2023-02-23T19:46:50.369Z,95.35
2023-02-23T19:49:55.026Z,126.65
2023-02-23T19:52:58.296Z,140.77
2023-02-23T19:56:04.782Z,138.57
2023-02-23T19:59:08.126Z,164.13
2023-02-23T20:02:14.132Z,181.57
2023-02-23T20:05:18.218Z,153.48
2023-02-23T20:08:21.642Z,101.32
2023-02-23T20:11:26.514Z,75.72
2023-02-23T20:14:32.707Z,87.70
2023-02-23T20:17:45.172Z,59.58
2023-02-23T20:20:49.016Z,58.92
2023-02-23T20:23:52.875Z,70.32
2023-02-23T20:27:00.154Z,65.82
2023-02-23T20:30:04.612Z,76.22
2023-02-23T20:33:11.783Z,101.47
2023-02-23T20:36:17.513Z,48.58
2023-02-23T20:39:23.395Z,73.35
2023-02-23T20:42:29.322Z,72.70
2023-02-23T20:45:33.201Z,94.32
2023-02-23T20:48:37.184Z,96.30
2023-02-23T20:51:43.041Z,60.95
2023-02-23T20:54:46.777Z,214.68
2023-02-23T20:57:53.170Z,56.85
2023-02-23T21:00:58.377Z,59.45
2023-02-23T21:04:02.589Z,88.55
2023-02-23T21:07:06.961Z,62.03
2023-02-23T21:10:14.156Z,277.25
2023-02-23T21:13:23.259Z,154.85
2023-02-23T21:16:27.790Z,315.75
2023-02-23T21:19:31.326Z,354.00
2023-02-23T21:22:34.734Z,98.65
2023-02-23T21:25:39.967Z,295.42
2023-02-23T21:28:46.528Z,112.65
2023-02-23T21:31:49.931Z,247.93
2023-02-23T21:34:56.981Z,167.68
2023-02-23T21:38:00.438Z,146.05
2023-02-23T21:41:05.029Z,177.60
2023-02-23T21:44:10.181Z,145.43
2023-02-23T21:47:14.704Z,120.57
2023-02-23T21:50:20.126Z,114.45
2023-02-23T21:53:23.469Z,83.03
2023-02-23T21:56:27.006Z,107.65
2023-02-23T21:59:32.468Z,99.82
2023-02-23T22:02:41.038Z,59.70
2023-02-23T22:05:44.599Z,82.07
2023-02-23T22:08:50.255Z,69.32
2023-02-23T22:11:53.552Z,96.28
2023-02-23T22:14:59.111Z,100.10
2023-02-23T22:18:02.635Z,83.28
2023-02-23T22:21:06.403Z,109.05
2023-02-23T22:24:11.631Z,120.55
2023-02-23T22:27:15.947Z,116.28
2023-02-23T22:30:23.043Z,100.50
2023-02-23T22:33:26.522Z,137.20
2023-02-23T22:36:30.294Z,158.35
2023-02-23T22:39:34.340Z,58.97
2023-02-23T22:42:37.685Z,70.53
2023-02-23T22:45:43.238Z,52.53
2023-02-23T22:48:46.873Z,63.15
2023-02-23T22:51:50.463Z,53.63
2023-02-23T22:54:54.134Z,49.60
2023-02-23T22:57:57.590Z,69.07
2023-02-23T23:01:05.740Z,70.78
2023-02-23T23:04:11.143Z,74.40
2023-02-23T23:07:14.776Z,42.28
2023-02-23T23:10:18.731Z,40.38
2023-02-23T23:13:23.108Z,49.85
2023-02-23T23:16:32.469Z,40.72
2023-02-23T23:19:39.050Z,37.53
2023-02-23T23:22:42.845Z,57.90
2023-02-23T23:25:47.852Z,50.05
2023-02-23T23:28:52.644Z,43.90
2023-02-23T23:31:58.183Z,36.47
2023-02-23T23:35:01.607Z,41.00
2023-02-23T23:38:06.434Z,40.38
2023-02-23T23:41:13.789Z,39.83
2023-02-23T23:44:22.019Z,44.25
2023-02-23T23:47:28.061Z,48.17
2023-02-23T23:50:31.313Z,38.72
2023-02-23T23:53:35.073Z,36.70
2023-02-23T23:56:38.519Z,41.05
2023-02-23T23:59:46.121Z,37.83
